sensor_id;sensor_type;location;lat;lon;timestamp;pressure;altitude;pressure_sealevel;temperature;humidity
73679;BME280;61978;52.742;16.962;2022-09-03T00:00:18;101483.58;;;11.23;100.00
73679;BME280;61978;52.742;16.962;2022-09-03T00:03:02;101482.23;;;11.23;100.00
73679;BME280;61978;52.742;16.962;2022-09-03T00:05:48;101482.42;;;11.22;100.00
73679;BME280;61978;52.742;16.962;2022-09-03T00:14:40;101482.92;;;11.17;100.00
73679;BME280;61978;52.742;16.962;2022-09-03T00:17:18;101486.99;;;11.13;100.00
73679;BME280;61978;52.742;16.962;2022-09-03T00:19:59;101482.80;;;11.06;100.00
73679;BME280;61978;52.742;16.962;2022-09-03T00:22:36;101479.45;;;11.00;100.00
73679;BME280;61978;52.742;16.962;2022-09-03T00:25:11;101475.92;;;11.00;100.00
73679;BME280;61978;52.742;16.962;2022-09-03T00:27:46;101471.39;;;11.00;100.00
73679;BME280;61978;52.742;16.962;2022-09-03T00:30:22;101462.98;;;11.03;100.00
73679;BME280;61978;52.742;16.962;2022-09-03T00:33:08;101459.11;;;11.06;100.00
73679;BME280;61978;52.742;16.962;2022-09-03T00:38:47;101452.39;;;11.02;100.00
73679;BME280;61978;52.742;16.962;2022-09-03T00:51:09;101434.91;;;11.06;100.00
73679;BME280;61978;52.742;16.962;2022-09-03T00:56:47;101435.71;;;11.19;100.00
73679;BME280;61978;52.742;16.962;2022-09-03T00:59:37;101437.36;;;11.24;100.00
73679;BME280;61978;52.742;16.962;2022-09-03T01:05:20;101426.55;;;11.32;100.00
73679;BME280;61978;52.742;16.962;2022-09-03T01:08:09;101432.43;;;11.35;100.00
73679;BME280;61978;52.742;16.962;2022-09-03T01:22:59;101395.71;;;11.46;100.00
73679;BME280;61978;52.742;16.962;2022-09-03T01:31:28;101381.33;;;11.62;100.00
73679;BME280;61978;52.742;16.962;2022-09-03T01:34:05;101384.86;;;11.62;100.00
73679;BME280;61978;52.742;16.962;2022-09-03T01:47:39;101382.72;;;11.58;100.00
73679;BME280;61978;52.742;16.962;2022-09-03T01:52:58;101387.42;;;11.56;100.00
73679;BME280;61978;52.742;16.962;2022-09-03T01:55:46;101388.12;;;11.54;100.00
73679;BME280;61978;52.742;16.962;2022-09-03T01:58:21;101382.09;;;11.48;100.00
73679;BME280;61978;52.742;16.962;2022-09-03T02:00:54;101383.86;;;11.37;100.00
73679;BME280;61978;52.742;16.962;2022-09-03T02:03:39;101392.64;;;11.27;100.00
73679;BME280;61978;52.742;16.962;2022-09-03T02:06:09;101390.31;;;11.20;100.00
73679;BME280;61978;52.742;16.962;2022-09-03T02:08:37;101386.31;;;11.15;100.00
73679;BME280;61978;52.742;16.962;2022-09-03T02:11:09;101391.70;;;11.15;100.00
73679;BME280;61978;52.742;16.962;2022-09-03T02:13:42;101378.91;;;11.18;100.00
73679;BME280;61978;52.742;16.962;2022-09-03T02:16:12;101377.55;;;11.22;100.00
73679;BME280;61978;52.742;16.962;2022-09-03T02:19:00;101377.86;;;11.23;100.00
73679;BME280;61978;52.742;16.962;2022-09-03T02:21:26;101372.82;;;11.24;100.00
73679;BME280;61978;52.742;16.962;2022-09-03T02:23:53;101379.20;;;11.23;100.00
73679;BME280;61978;52.742;16.962;2022-09-03T02:26:22;101376.02;;;11.23;100.00
73679;BME280;61978;52.742;16.962;2022-09-03T02:28:52;101372.52;;;11.19;100.00
73679;BME280;61978;52.742;16.962;2022-09-03T02:31:21;101365.95;;;11.21;100.00
73679;BME280;61978;52.742;16.962;2022-09-03T02:33:48;101362.76;;;11.22;100.00
73679;BME280;61978;52.742;16.962;2022-09-03T02:36:20;101364.95;;;11.22;100.00
73679;BME280;61978;52.742;16.962;2022-09-03T02:38:53;101364.51;;;11.10;100.00
73679;BME280;61978;52.742;16.962;2022-09-03T02:41:19;101364.51;;;11.10;100.00
73679;BME280;61978;52.742;16.962;2022-09-03T02:44:11;101360.78;;;11.11;100.00
73679;BME280;61978;52.742;16.962;2022-09-03T02:46:28;101360.28;;;11.12;100.00
73679;BME280;61978;52.742;16.962;2022-09-03T02:48:54;101350.38;;;11.12;100.00
73679;BME280;61978;52.742;16.962;2022-09-03T02:51:21;101356.06;;;11.13;100.00
73679;BME280;61978;52.742;16.962;2022-09-03T02:53:47;101349.33;;;11.18;100.00
73679;BME280;61978;52.742;16.962;2022-09-03T02:56:13;101353.00;;;11.21;100.00
73679;BME280;61978;52.742;16.962;2022-09-03T02:58:40;101346.64;;;11.18;100.00
73679;BME280;61978;52.742;16.962;2022-09-03T03:01:06;101346.64;;;11.18;100.00
73679;BME280;61978;52.742;16.962;2022-09-03T03:03:35;101341.26;;;11.18;100.00
73679;BME280;61978;52.742;16.962;2022-09-03T03:06:03;101345.30;;;11.13;100.00
73679;BME280;61978;52.742;16.962;2022-09-03T03:08:31;101347.34;;;11.11;100.00
73679;BME280;61978;52.742;16.962;2022-09-03T03:11:00;101338.27;;;11.12;100.00
73679;BME280;61978;52.742;16.962;2022-09-03T03:13:31;101343.50;;;11.10;100.00
73679;BME280;61978;52.742;16.962;2022-09-03T03:16:03;101349.08;;;11.04;100.00
73679;BME280;61978;52.742;16.962;2022-09-03T03:18:31;101344.66;;;11.11;100.00
73679;BME280;61978;52.742;16.962;2022-09-03T03:21:07;101351.08;;;11.02;100.00
73679;BME280;61978;52.742;16.962;2022-09-03T03:23:41;101347.05;;;11.06;100.00
73679;BME280;61978;52.742;16.962;2022-09-03T03:26:12;101351.44;;;10.99;100.00
73679;BME280;61978;52.742;16.962;2022-09-03T03:28:42;101360.03;;;10.95;100.00
73679;BME280;61978;52.742;16.962;2022-09-03T03:31:11;101354.17;;;10.91;100.00
73679;BME280;61978;52.742;16.962;2022-09-03T03:33:40;101357.84;;;10.94;100.00
73679;BME280;61978;52.742;16.962;2022-09-03T03:36:11;101357.70;;;10.92;100.00
73679;BME280;61978;52.742;16.962;2022-09-03T03:38:42;101349.14;;;10.92;100.00
73679;BME280;61978;52.742;16.962;2022-09-03T03:41:14;101352.48;;;10.90;100.00
73679;BME280;61978;52.742;16.962;2022-09-03T03:43:55;101351.83;;;10.88;100.00
73679;BME280;61978;52.742;16.962;2022-09-03T03:46:24;101349.14;;;10.88;100.00
73679;BME280;61978;52.742;16.962;2022-09-03T03:48:56;101347.11;;;10.90;100.00
73679;BME280;61978;52.742;16.962;2022-09-03T03:51:24;101347.30;;;10.89;100.00
73679;BME280;61978;52.742;16.962;2022-09-03T03:53:54;101346.45;;;10.88;100.00
73679;BME280;61978;52.742;16.962;2022-09-03T03:56:23;101348.48;;;10.86;100.00
73679;BME280;61978;52.742;16.962;2022-09-03T03:58:52;101352.17;;;10.85;100.00
73679;BME280;61978;52.742;16.962;2022-09-03T04:01:24;101344.27;;;10.88;100.00
73679;BME280;61978;52.742;16.962;2022-09-03T04:03:54;101333.01;;;10.92;100.00
73679;BME280;61978;52.742;16.962;2022-09-03T04:06:22;101333.66;;;10.94;100.00
73679;BME280;61978;52.742;16.962;2022-09-03T04:08:49;101331.11;;;11.01;100.00
73679;BME280;61978;52.742;16.962;2022-09-03T04:11:19;101342.53;;;10.99;100.00
73679;BME280;61978;52.742;16.962;2022-09-03T04:13:50;101342.72;;;10.97;100.00
73679;BME280;61978;52.742;16.962;2022-09-03T04:16:22;101345.41;;;10.93;100.00
73679;BME280;61978;52.742;16.962;2022-09-03T04:18:53;101341.03;;;10.96;100.00
73679;BME280;61978;52.742;16.962;2022-09-03T04:21:23;101352.97;;;10.98;100.00
73679;BME280;61978;52.742;16.962;2022-09-03T04:23:53;101342.02;;;10.99;100.00
73679;BME280;61978;52.742;16.962;2022-09-03T04:26:23;101352.47;;;10.98;100.00
73679;BME280;61978;52.742;16.962;2022-09-03T04:28:52;101349.93;;;11.01;100.00
73679;BME280;61978;52.742;16.962;2022-09-03T04:31:21;101346.89;;;11.04;100.00
73679;BME280;61978;52.742;16.962;2022-09-03T04:33:48;101347.53;;;11.10;100.00
73679;BME280;61978;52.742;16.962;2022-09-03T04:36:21;101352.87;;;11.14;100.00
73679;BME280;61978;52.742;16.962;2022-09-03T04:38:51;101348.81;;;11.22;100.00
73679;BME280;61978;52.742;16.962;2022-09-03T04:41:25;101338.30;;;11.35;100.00
73679;BME280;61978;52.742;16.962;2022-09-03T04:43:55;101339.58;;;11.43;100.00
73679;BME280;61978;52.742;16.962;2022-09-03T04:46:27;101344.45;;;11.44;100.00
73679;BME280;61978;52.742;16.962;2022-09-03T04:48:56;101341.10;;;11.46;100.00
73679;BME280;61978;52.742;16.962;2022-09-03T04:51:25;101343.79;;;11.46;100.00
73679;BME280;61978;52.742;16.962;2022-09-03T04:53:59;101342.75;;;11.47;100.00
73679;BME280;61978;52.742;16.962;2022-09-03T04:56:24;101338.68;;;11.55;100.00
73679;BME280;61978;52.742;16.962;2022-09-03T04:58:56;101341.95;;;11.65;100.00
73679;BME280;61978;52.742;16.962;2022-09-03T05:01:26;101343.95;;;11.71;100.00
73679;BME280;61978;52.742;16.962;2022-09-03T05:03:55;101340.19;;;11.80;100.00
73679;BME280;61978;52.742;16.962;2022-09-03T05:06:24;101336.91;;;11.89;100.00
73679;BME280;61978;52.742;16.962;2022-09-03T05:08:52;101333.97;;;11.98;100.00
73679;BME280;61978;52.742;16.962;2022-09-03T05:11:21;101341.97;;;12.06;100.00
73679;BME280;61978;52.742;16.962;2022-09-03T05:13:50;101347.94;;;12.16;100.00
73679;BME280;61978;52.742;16.962;2022-09-03T05:16:18;101346.70;;;12.23;100.00
73679;BME280;61978;52.742;16.962;2022-09-03T05:18:46;101343.05;;;12.35;100.00
73679;BME280;61978;52.742;16.962;2022-09-03T05:21:15;101339.92;;;12.42;100.00
73679;BME280;61978;52.742;16.962;2022-09-03T05:23:48;101336.13;;;12.51;100.00
73679;BME280;61978;52.742;16.962;2022-09-03T05:26:19;101337.94;;;12.69;100.00
73679;BME280;61978;52.742;16.962;2022-09-03T05:28:45;101341.83;;;12.81;100.00
73679;BME280;61978;52.742;16.962;2022-09-03T05:31:16;101341.72;;;12.89;100.00
73679;BME280;61978;52.742;16.962;2022-09-03T05:33:49;101339.84;;;13.04;100.00
73679;BME280;61978;52.742;16.962;2022-09-03T05:36:19;101343.83;;;13.12;100.00
73679;BME280;61978;52.742;16.962;2022-09-03T05:38:48;101334.09;;;13.32;100.00
73679;BME280;61978;52.742;16.962;2022-09-03T05:41:17;101330.17;;;13.46;100.00
73679;BME280;61978;52.742;16.962;2022-09-03T05:43:46;101318.77;;;14.03;100.00
73679;BME280;61978;52.742;16.962;2022-09-03T05:46:14;101298.30;;;14.84;100.00
73679;BME280;61978;52.742;16.962;2022-09-03T05:48:46;101296.90;;;15.44;100.00
73679;BME280;61978;52.742;16.962;2022-09-03T05:51:14;101291.47;;;15.88;100.00
73679;BME280;61978;52.742;16.962;2022-09-03T05:53:44;101293.02;;;15.93;100.00
73679;BME280;61978;52.742;16.962;2022-09-03T05:56:13;101294.53;;;16.31;100.00
73679;BME280;61978;52.742;16.962;2022-09-03T05:58:47;101289.30;;;16.55;100.00
73679;BME280;61978;52.742;16.962;2022-09-03T06:01:24;101294.80;;;16.64;100.00
73679;BME280;61978;52.742;16.962;2022-09-03T06:03:56;101291.14;;;16.90;100.00
73679;BME280;61978;52.742;16.962;2022-09-03T06:06:23;101294.76;;;17.00;100.00
73679;BME280;61978;52.742;16.962;2022-09-03T06:08:57;101296.50;;;17.10;100.00
73679;BME280;61978;52.742;16.962;2022-09-03T06:11:25;101298.45;;;17.12;100.00
73679;BME280;61978;52.742;16.962;2022-09-03T06:13:56;101302.36;;;17.07;100.00
73679;BME280;61978;52.742;16.962;2022-09-03T06:16:24;101294.11;;;17.42;100.00
73679;BME280;61978;52.742;16.962;2022-09-03T06:18:52;101276.72;;;17.81;100.00
73679;BME280;61978;52.742;16.962;2022-09-03T06:21:21;101300.34;;;17.81;100.00
73679;BME280;61978;52.742;16.962;2022-09-03T06:23:50;101287.56;;;18.06;100.00
73679;BME280;61978;52.742;16.962;2022-09-03T06:26:19;101294.73;;;18.43;100.00
73679;BME280;61978;52.742;16.962;2022-09-03T06:28:46;101314.05;;;18.35;100.00
73679;BME280;61978;52.742;16.962;2022-09-03T06:31:16;101299.59;;;18.50;100.00
73679;BME280;61978;52.742;16.962;2022-09-03T06:33:45;101300.22;;;18.61;100.00
73679;BME280;61978;52.742;16.962;2022-09-03T06:36:15;101301.41;;;18.65;100.00
73679;BME280;61978;52.742;16.962;2022-09-03T06:38:42;101303.08;;;18.84;100.00
73679;BME280;61978;52.742;16.962;2022-09-03T06:41:18;101292.77;;;19.05;100.00
73679;BME280;61978;52.742;16.962;2022-09-03T06:43:47;101297.95;;;19.15;100.00
73679;BME280;61978;52.742;16.962;2022-09-03T06:46:15;101311.16;;;19.00;100.00
73679;BME280;61978;52.742;16.962;2022-09-03T06:48:43;101318.18;;;18.99;100.00
73679;BME280;61978;52.742;16.962;2022-09-03T06:51:17;101318.77;;;19.10;100.00
73679;BME280;61978;52.742;16.962;2022-09-03T06:53:48;101309.74;;;19.18;100.00
73679;BME280;61978;52.742;16.962;2022-09-03T06:56:17;101321.64;;;19.24;100.00
73679;BME280;61978;52.742;16.962;2022-09-03T06:58:46;101319.38;;;19.21;100.00
73679;BME280;61978;52.742;16.962;2022-09-03T07:01:16;101304.51;;;19.44;100.00
73679;BME280;61978;52.742;16.962;2022-09-03T07:03:45;101297.82;;;19.49;100.00
73679;BME280;61978;52.742;16.962;2022-09-03T07:06:15;101299.91;;;19.77;100.00
73679;BME280;61978;52.742;16.962;2022-09-03T07:08:44;101307.84;;;19.78;100.00
73679;BME280;61978;52.742;16.962;2022-09-03T07:11:14;101295.44;;;20.06;100.00
73679;BME280;61978;52.742;16.962;2022-09-03T07:13:43;101303.50;;;20.01;100.00
73679;BME280;61978;52.742;16.962;2022-09-03T07:16:16;101306.33;;;19.94;100.00
73679;BME280;61978;52.742;16.962;2022-09-03T07:18:39;101300.16;;;19.98;100.00
73679;BME280;61978;52.742;16.962;2022-09-03T07:21:08;101304.34;;;20.01;100.00
73679;BME280;61978;52.742;16.962;2022-09-03T07:23:36;101309.64;;;19.96;100.00
73679;BME280;61978;52.742;16.962;2022-09-03T07:26:05;101293.44;;;20.13;100.00
73679;BME280;61978;52.742;16.962;2022-09-03T07:28:37;101273.41;;;20.42;100.00
73679;BME280;61978;52.742;16.962;2022-09-03T07:31:11;101277.50;;;20.68;100.00
73679;BME280;61978;52.742;16.962;2022-09-03T07:33:39;101298.90;;;20.47;97.48
73679;BME280;61978;52.742;16.962;2022-09-03T07:36:10;101308.71;;;20.14;95.27
73679;BME280;61978;52.742;16.962;2022-09-03T07:38:41;101310.80;;;20.21;97.07
73679;BME280;61978;52.742;16.962;2022-09-03T07:41:10;101307.55;;;20.10;98.36
73679;BME280;61978;52.742;16.962;2022-09-03T07:43:40;101300.30;;;20.04;99.16
73679;BME280;61978;52.742;16.962;2022-09-03T07:46:16;101319.52;;;19.76;100.00
73679;BME280;61978;52.742;16.962;2022-09-03T07:51:19;101295.06;;;19.90;100.00
73679;BME280;61978;52.742;16.962;2022-09-03T07:53:47;101310.57;;;19.78;98.21
73679;BME280;61978;52.742;16.962;2022-09-03T07:56:14;101302.94;;;19.89;99.65
73679;BME280;61978;52.742;16.962;2022-09-03T07:58:42;101293.06;;;19.98;99.59
73679;BME280;61978;52.742;16.962;2022-09-03T08:01:11;101298.26;;;19.87;97.62
73679;BME280;61978;52.742;16.962;2022-09-03T08:03:41;101299.08;;;19.76;96.74
73679;BME280;61978;52.742;16.962;2022-09-03T08:06:07;101282.48;;;19.89;98.63
73679;BME280;61978;52.742;16.962;2022-09-03T08:08:36;101248.34;;;20.31;100.00
73679;BME280;61978;52.742;16.962;2022-09-03T08:11:09;101262.59;;;20.24;95.98
73679;BME280;61978;52.742;16.962;2022-09-03T08:13:45;101278.91;;;19.98;94.42
73679;BME280;61978;52.742;16.962;2022-09-03T08:16:11;101256.38;;;20.26;95.39
73679;BME280;61978;52.742;16.962;2022-09-03T08:18:38;101266.02;;;20.08;93.71
73679;BME280;61978;52.742;16.962;2022-09-03T08:21:10;101251.80;;;20.17;95.34
73679;BME280;61978;52.742;16.962;2022-09-03T08:23:48;101238.79;;;20.31;94.57
73679;BME280;61978;52.742;16.962;2022-09-03T08:26:12;101232.24;;;20.32;94.71
73679;BME280;61978;52.742;16.962;2022-09-03T08:28:40;101226.19;;;20.18;96.42
73679;BME280;61978;52.742;16.962;2022-09-03T08:31:14;101234.32;;;20.16;94.84
73679;BME280;61978;52.742;16.962;2022-09-03T08:33:43;101229.14;;;20.17;93.45
73679;BME280;61978;52.742;16.962;2022-09-03T08:36:14;101225.77;;;20.24;91.43
73679;BME280;61978;52.742;16.962;2022-09-03T08:38:42;101219.79;;;20.36;91.14
73679;BME280;61978;52.742;16.962;2022-09-03T08:46:59;101187.85;;;20.48;90.22
73679;BME280;61978;52.742;16.962;2022-09-03T08:55:20;101158.11;;;20.91;87.01
73679;BME280;61978;52.742;16.962;2022-09-03T08:57:59;101157.88;;;20.93;84.45
73679;BME280;61978;52.742;16.962;2022-09-03T09:00:22;101135.27;;;21.26;82.92
73679;BME280;61978;52.742;16.962;2022-09-03T09:08:19;101138.77;;;21.24;76.53
73679;BME280;61978;52.742;16.962;2022-09-03T09:10:46;101115.36;;;21.47;76.15
73679;BME280;61978;52.742;16.962;2022-09-03T09:16:18;101092.69;;;21.66;72.42
73679;BME280;61978;52.742;16.962;2022-09-03T09:19:20;101066.06;;;21.94;73.59
73679;BME280;61978;52.742;16.962;2022-09-03T09:22:10;101077.56;;;21.96;68.84
73679;BME280;61978;52.742;16.962;2022-09-03T09:24:41;101058.54;;;21.87;76.04
73679;BME280;61978;52.742;16.962;2022-09-03T09:27:09;101061.99;;;21.80;72.14
73679;BME280;61978;52.742;16.962;2022-09-03T09:29:38;101047.97;;;21.74;69.28
73679;BME280;61978;52.742;16.962;2022-09-03T09:32:08;101024.17;;;21.91;71.51
73679;BME280;61978;52.742;16.962;2022-09-03T09:34:38;101007.89;;;22.04;72.47
73679;BME280;61978;52.742;16.962;2022-09-03T09:37:11;100990.98;;;22.09;74.23
73679;BME280;61978;52.742;16.962;2022-09-03T09:39:40;101005.16;;;21.82;72.99
73679;BME280;61978;52.742;16.962;2022-09-03T09:42:10;100985.48;;;22.07;72.62
73679;BME280;61978;52.742;16.962;2022-09-03T09:44:40;100995.00;;;21.99;70.60
73679;BME280;61978;52.742;16.962;2022-09-03T09:52:16;100958.81;;;22.19;69.40
73679;BME280;61978;52.742;16.962;2022-09-03T09:54:44;100949.03;;;22.26;68.93
73679;BME280;61978;52.742;16.962;2022-09-03T09:57:24;100947.66;;;22.26;68.67
73679;BME280;61978;52.742;16.962;2022-09-03T10:00:08;100949.91;;;22.04;67.51
73679;BME280;61978;52.742;16.962;2022-09-03T10:02:54;100923.70;;;22.08;67.26
73679;BME280;61978;52.742;16.962;2022-09-03T10:05:30;100911.47;;;22.19;69.03
73679;BME280;61978;52.742;16.962;2022-09-03T10:08:05;100886.55;;;22.49;66.38
73679;BME280;61978;52.742;16.962;2022-09-03T10:10:38;100920.81;;;22.23;64.04
73679;BME280;61978;52.742;16.962;2022-09-03T10:13:11;100892.03;;;22.49;64.64
73679;BME280;61978;52.742;16.962;2022-09-03T10:24:03;100846.80;;;22.76;67.62
73679;BME280;61978;52.742;16.962;2022-09-03T10:26:31;100902.35;;;22.40;63.04
73679;BME280;61978;52.742;16.962;2022-09-03T10:29:02;100897.27;;;21.92;64.79
73679;BME280;61978;52.742;16.962;2022-09-03T10:34:21;100834.27;;;22.51;64.76
73679;BME280;61978;52.742;16.962;2022-09-03T10:43:44;100808.12;;;23.24;63.42
73679;BME280;61978;52.742;16.962;2022-09-03T10:51:25;100770.64;;;23.58;59.53
73679;BME280;61978;52.742;16.962;2022-09-03T10:54:18;100734.19;;;23.85;61.15
73679;BME280;61978;52.742;16.962;2022-09-03T11:02:46;100725.43;;;24.11;58.67
73679;BME280;61978;52.742;16.962;2022-09-03T11:05:21;100774.50;;;23.67;56.48
73679;BME280;61978;52.742;16.962;2022-09-03T11:07:57;100793.00;;;23.12;55.75
73679;BME280;61978;52.742;16.962;2022-09-03T11:10:31;100807.60;;;22.68;56.71
73679;BME280;61978;52.742;16.962;2022-09-03T11:13:05;100736.54;;;23.03;58.79
73679;BME280;61978;52.742;16.962;2022-09-03T11:15:36;100729.47;;;23.33;56.08
73679;BME280;61978;52.742;16.962;2022-09-03T11:21:00;100693.05;;;23.55;56.85
73679;BME280;61978;52.742;16.962;2022-09-03T11:23:31;100714.08;;;23.11;57.42
73679;BME280;61978;52.742;16.962;2022-09-03T11:26:03;100703.08;;;22.91;58.28
73679;BME280;61978;52.742;16.962;2022-09-03T11:28:50;100710.31;;;22.58;60.88
73679;BME280;61978;52.742;16.962;2022-09-03T11:34:10;100654.66;;;22.40;60.36
73679;BME280;61978;52.742;16.962;2022-09-03T11:36:37;100644.76;;;22.24;60.14
73679;BME280;61978;52.742;16.962;2022-09-03T11:42:03;100556.27;;;23.08;59.11
73679;BME280;61978;52.742;16.962;2022-09-03T11:44:39;100559.29;;;23.09;59.99
73679;BME280;61978;52.742;16.962;2022-09-03T11:47:12;100570.25;;;22.86;58.56
73679;BME280;61978;52.742;16.962;2022-09-03T11:49:50;100538.74;;;23.06;57.82
73679;BME280;61978;52.742;16.962;2022-09-03T11:52:29;100479.17;;;23.65;58.87
73679;BME280;61978;52.742;16.962;2022-09-03T11:55:01;100488.94;;;23.96;56.09
73679;BME280;61978;52.742;16.962;2022-09-03T11:57:29;100551.84;;;23.37;52.46
73679;BME280;61978;52.742;16.962;2022-09-03T12:00:14;100564.48;;;23.20;53.08
73679;BME280;61978;52.742;16.962;2022-09-03T12:02:47;100553.53;;;23.05;53.09
73679;BME280;61978;52.742;16.962;2022-09-03T12:10:39;100526.95;;;22.91;55.74
73679;BME280;61978;52.742;16.962;2022-09-03T12:18:53;100424.31;;;24.21;52.77
73679;BME280;61978;52.742;16.962;2022-09-03T12:21:22;100392.16;;;24.61;51.95
73679;BME280;61978;52.742;16.962;2022-09-03T12:23:52;100428.02;;;24.43;52.35
73679;BME280;61978;52.742;16.962;2022-09-03T12:26:23;100422.50;;;24.46;53.44
73679;BME280;61978;52.742;16.962;2022-09-03T12:28:58;100412.89;;;24.46;52.45
73679;BME280;61978;52.742;16.962;2022-09-03T12:31:31;100426.80;;;24.18;52.74
73679;BME280;61978;52.742;16.962;2022-09-03T12:34:06;100432.03;;;24.14;52.39
73679;BME280;61978;52.742;16.962;2022-09-03T12:39:14;100382.48;;;24.37;52.10
73679;BME280;61978;52.742;16.962;2022-09-03T12:42:06;100356.73;;;24.59;52.42
73679;BME280;61978;52.742;16.962;2022-09-03T12:47:14;100341.29;;;25.18;50.38
73679;BME280;61978;52.742;16.962;2022-09-03T12:49:44;100373.27;;;24.88;50.63
73679;BME280;61978;52.742;16.962;2022-09-03T12:52:33;100395.16;;;24.64;48.76
73679;BME280;61978;52.742;16.962;2022-09-03T12:57:46;100371.81;;;24.62;49.31
73679;BME280;61978;52.742;16.962;2022-09-03T13:00:16;100359.03;;;24.78;49.13
73679;BME280;61978;52.742;16.962;2022-09-03T13:03:11;100373.13;;;24.38;51.31
73679;BME280;61978;52.742;16.962;2022-09-03T13:05:43;100395.66;;;23.96;50.72
73679;BME280;61978;52.742;16.962;2022-09-03T13:08:21;100397.03;;;23.42;52.29
73679;BME280;61978;52.742;16.962;2022-09-03T13:10:55;100346.62;;;23.31;53.12
73679;BME280;61978;52.742;16.962;2022-09-03T13:13:29;100307.05;;;23.54;53.85
73679;BME280;61978;52.742;16.962;2022-09-03T13:16:27;100265.69;;;23.85;52.89
73679;BME280;61978;52.742;16.962;2022-09-03T13:19:04;100268.11;;;23.91;51.68
73679;BME280;61978;52.742;16.962;2022-09-03T13:29:56;100298.41;;;23.24;52.66
73679;BME280;61978;52.742;16.962;2022-09-03T13:35:27;100262.66;;;22.93;54.47
73679;BME280;61978;52.742;16.962;2022-09-03T13:40:47;100212.06;;;23.30;52.65
73679;BME280;61978;52.742;16.962;2022-09-03T13:46:05;100134.89;;;24.11;52.74
73679;BME280;61978;52.742;16.962;2022-09-03T13:51:30;100166.75;;;24.07;50.71
73679;BME280;61978;52.742;16.962;2022-09-03T13:54:13;100166.59;;;23.96;51.05
73679;BME280;61978;52.742;16.962;2022-09-03T13:57:03;100162.08;;;24.05;50.77
73679;BME280;61978;52.742;16.962;2022-09-03T13:59:59;100163.70;;;24.14;50.18
73679;BME280;61978;52.742;16.962;2022-09-03T14:02:27;100221.09;;;23.74;49.88
73679;BME280;61978;52.742;16.962;2022-09-03T14:05:04;100185.44;;;23.74;50.25
73679;BME280;61978;52.742;16.962;2022-09-03T14:13:09;100150.50;;;23.87;50.69
73679;BME280;61978;52.742;16.962;2022-09-03T14:15:57;100162.59;;;23.84;49.25
73679;BME280;61978;52.742;16.962;2022-09-03T14:18:40;100169.11;;;23.59;50.80
73679;BME280;61978;52.742;16.962;2022-09-03T14:21:17;100127.21;;;23.82;50.92
73679;BME280;61978;52.742;16.962;2022-09-03T14:24:06;100146.38;;;23.85;48.37
73679;BME280;61978;52.742;16.962;2022-09-03T14:26:37;100123.65;;;23.84;50.42
73679;BME280;61978;52.742;16.962;2022-09-03T14:45:25;100093.56;;;24.00;50.85
73679;BME280;61978;52.742;16.962;2022-09-03T14:57:16;100107.31;;;23.43;52.50
73679;BME280;61978;52.742;16.962;2022-09-03T15:02:39;100071.02;;;23.22;54.04
73679;BME280;61978;52.742;16.962;2022-09-03T15:07:44;100073.02;;;23.09;51.55
73679;BME280;61978;52.742;16.962;2022-09-03T15:10:31;100056.21;;;23.20;52.19
73679;BME280;61978;52.742;16.962;2022-09-03T15:18:31;100052.95;;;22.82;55.86
73679;BME280;61978;52.742;16.962;2022-09-03T15:21:23;100026.66;;;22.81;57.88
73679;BME280;61978;52.742;16.962;2022-09-03T15:24:29;100015.55;;;22.67;57.95
73679;BME280;61978;52.742;16.962;2022-09-03T15:30:07;100018.27;;;22.70;54.42
73679;BME280;61978;52.742;16.962;2022-09-03T15:32:48;100032.32;;;22.48;54.29
73679;BME280;61978;52.742;16.962;2022-09-03T15:40:54;99976.80;;;21.96;62.08
73679;BME280;61978;52.742;16.962;2022-09-03T15:43:31;99944.23;;;21.97;62.97
73679;BME280;61978;52.742;16.962;2022-09-03T15:46:11;99938.00;;;21.89;63.05
73679;BME280;61978;52.742;16.962;2022-09-03T15:48:55;99915.58;;;21.90;62.61
73679;BME280;61978;52.742;16.962;2022-09-03T15:51:42;99916.13;;;21.94;61.34
73679;BME280;61978;52.742;16.962;2022-09-03T15:56:52;99906.45;;;22.07;61.91
73679;BME280;61978;52.742;16.962;2022-09-03T15:59:34;99883.38;;;22.23;62.78
73679;BME280;61978;52.742;16.962;2022-09-03T16:05:04;99905.75;;;22.30;61.71
73679;BME280;61978;52.742;16.962;2022-09-03T16:10:15;99926.98;;;22.04;62.20
73679;BME280;61978;52.742;16.962;2022-09-03T16:13:00;99930.32;;;21.96;63.61
73679;BME280;61978;52.742;16.962;2022-09-03T16:15:42;99924.58;;;21.95;64.01
73679;BME280;61978;52.742;16.962;2022-09-03T16:18:37;99924.33;;;21.89;63.81
73679;BME280;61978;52.742;16.962;2022-09-03T16:21:31;99933.94;;;21.74;64.21
73679;BME280;61978;52.742;16.962;2022-09-03T16:23:41;99924.92;;;21.76;64.73
73679;BME280;61978;52.742;16.962;2022-09-03T16:26:46;99928.22;;;21.73;64.77
73679;BME280;61978;52.742;16.962;2022-09-03T16:29:16;99924.41;;;21.67;65.72
73679;BME280;61978;52.742;16.962;2022-09-03T16:31:50;99916.20;;;21.69;65.54
73679;BME280;61978;52.742;16.962;2022-09-03T16:34:25;99924.96;;;21.66;65.90
73679;BME280;61978;52.742;16.962;2022-09-03T16:42:51;99929.17;;;21.33;68.05
73679;BME280;61978;52.742;16.962;2022-09-03T16:53:51;99940.16;;;20.93;70.32
73679;BME280;61978;52.742;16.962;2022-09-03T17:13:16;99926.52;;;20.40;75.56
73679;BME280;61978;52.742;16.962;2022-09-03T17:25:39;99941.71;;;20.18;77.62